sensor_id;sensor_type;location;lat;lon;timestamp;pressure;altitude;pressure_sealevel;temperature;humidity
78717;BME280;68045;50.042;14.432;2023-07-31T00:03:47;98225.41;;;14.98;82.09
78717;BME280;68045;50.042;14.432;2023-07-31T00:07:47;98229.66;;;14.94;82.24
78717;BME280;68045;50.042;14.432;2023-07-31T00:11:48;98228.03;;;14.93;82.29
78717;BME280;68045;50.042;14.432;2023-07-31T00:15:49;98217.44;;;14.98;81.59
78717;BME280;68045;50.042;14.432;2023-07-31T00:19:50;98221.69;;;14.94;80.93
78717;BME280;68045;50.042;14.432;2023-07-31T00:23:51;98219.28;;;14.93;80.94
78717;BME280;68045;50.042;14.432;2023-07-31T00:27:52;98221.09;;;14.82;80.46
78717;BME280;68045;50.042;14.432;2023-07-31T00:31:53;98219.50;;;14.81;79.70
78717;BME280;68045;50.042;14.432;2023-07-31T00:35:54;98223.78;;;14.87;79.84
78717;BME280;68045;50.042;14.432;2023-07-31T00:39:55;98217.66;;;14.87;79.16
78717;BME280;68045;50.042;14.432;2023-07-31T00:43:56;98212.03;;;14.78;80.09
78717;BME280;68045;50.042;14.432;2023-07-31T00:47:57;98217.31;;;14.73;81.44
78717;BME280;68045;50.042;14.432;2023-07-31T00:51:59;98221.81;;;14.67;81.42
78717;BME280;68045;50.042;14.432;2023-07-31T00:56:00;98224.75;;;14.71;80.72
78717;BME280;68045;50.042;14.432;2023-07-31T01:00:00;98220.72;;;14.63;81.40
78717;BME280;68045;50.042;14.432;2023-07-31T01:04:02;98222.31;;;14.64;81.42
78717;BME280;68045;50.042;14.432;2023-07-31T01:12:41;98209.25;;;14.52;82.54
78717;BME280;68045;50.042;14.432;2023-07-31T01:16:42;98212.72;;;14.58;82.41
78717;BME280;68045;50.042;14.432;2023-07-31T01:20:47;98213.50;;;14.59;82.65
78717;BME280;68045;50.042;14.432;2023-07-31T01:29:49;98193.88;;;14.60;81.89
78717;BME280;68045;50.042;14.432;2023-07-31T01:33:56;98199.88;;;14.45;82.01
78717;BME280;68045;50.042;14.432;2023-07-31T01:37:58;98202.53;;;14.45;81.71
78717;BME280;68045;50.042;14.432;2023-07-31T01:41:59;98192.16;;;14.43;81.81
78717;BME280;68045;50.042;14.432;2023-07-31T01:46:01;98192.72;;;14.45;81.04
78717;BME280;68045;50.042;14.432;2023-07-31T01:50:02;98183.59;;;14.36;81.03
78717;BME280;68045;50.042;14.432;2023-07-31T01:54:03;98186.84;;;14.43;80.56
78717;BME280;68045;50.042;14.432;2023-07-31T01:58:04;98180.72;;;14.43;80.57
78717;BME280;68045;50.042;14.432;2023-07-31T02:02:05;98180.28;;;14.51;79.60
78717;BME280;68045;50.042;14.432;2023-07-31T02:06:06;98180.00;;;14.47;79.22
78717;BME280;68045;50.042;14.432;2023-07-31T02:10:07;98176.56;;;14.52;78.63
78717;BME280;68045;50.042;14.432;2023-07-31T02:14:10;98175.94;;;14.40;79.27
78717;BME280;68045;50.042;14.432;2023-07-31T02:18:11;98169.03;;;14.44;78.68
78717;BME280;68045;50.042;14.432;2023-07-31T02:22:12;98168.81;;;14.45;78.90
78717;BME280;68045;50.042;14.432;2023-07-31T02:26:13;98173.31;;;14.45;78.97
78717;BME280;68045;50.042;14.432;2023-07-31T02:30:14;98165.34;;;14.45;78.83
78717;BME280;68045;50.042;14.432;2023-07-31T02:34:15;98171.69;;;14.44;78.47
78717;BME280;68045;50.042;14.432;2023-07-31T02:38:16;98171.69;;;14.44;78.76
78717;BME280;68045;50.042;14.432;2023-07-31T02:42:17;98171.69;;;14.39;78.51
78717;BME280;68045;50.042;14.432;2023-07-31T02:46:19;98175.94;;;14.40;78.20
78717;BME280;68045;50.042;14.432;2023-07-31T02:50:21;98162.94;;;14.43;77.46
78717;BME280;68045;50.042;14.432;2023-07-31T02:54:21;98170.09;;;14.38;77.03
78717;BME280;68045;50.042;14.432;2023-07-31T02:58:22;98174.34;;;14.44;76.71
78717;BME280;68045;50.042;14.432;2023-07-31T03:02:23;98182.09;;;14.45;76.75
78717;BME280;68045;50.042;14.432;2023-07-31T03:06:24;98177.53;;;14.41;76.65
78717;BME280;68045;50.042;14.432;2023-07-31T03:10:27;98173.56;;;14.43;76.47
78717;BME280;68045;50.042;14.432;2023-07-31T03:14:28;98161.88;;;14.44;76.43
78717;BME280;68045;50.042;14.432;2023-07-31T03:18:29;98173.28;;;14.40;76.65
78717;BME280;68045;50.042;14.432;2023-07-31T03:22:30;98173.31;;;14.45;76.88
78717;BME280;68045;50.042;14.432;2023-07-31T03:26:32;98172.75;;;14.43;76.39
78717;BME280;68045;50.042;14.432;2023-07-31T03:30:35;98164.53;;;14.44;76.62
78717;BME280;68045;50.042;14.432;2023-07-31T03:34:37;98165.38;;;14.50;76.24
78717;BME280;68045;50.042;14.432;2023-07-31T03:38:40;98170.09;;;14.38;76.62
78717;BME280;68045;50.042;14.432;2023-07-31T03:42:41;98169.53;;;14.36;76.16
78717;BME280;68045;50.042;14.432;2023-07-31T03:46:42;98174.31;;;14.34;76.48
78717;BME280;68045;50.042;14.432;2023-07-31T03:50:43;98175.97;;;14.45;75.41
78717;BME280;68045;50.042;14.432;2023-07-31T03:54:44;98180.84;;;14.53;74.75
78717;BME280;68045;50.042;14.432;2023-07-31T03:58:45;98184.03;;;14.55;74.97
78717;BME280;68045;50.042;14.432;2023-07-31T04:02:46;98179.53;;;14.61;74.55
78717;BME280;68045;50.042;14.432;2023-07-31T04:06:47;98182.47;;;14.64;73.52
78717;BME280;68045;50.042;14.432;2023-07-31T04:10:48;98181.22;;;14.77;73.67
78717;BME280;68045;50.042;14.432;2023-07-31T04:14:49;98182.59;;;14.90;73.05
78717;BME280;68045;50.042;14.432;2023-07-31T04:18:50;98169.03;;;14.91;72.64
78717;BME280;68045;50.042;14.432;2023-07-31T04:22:51;98169.63;;;15.03;71.90
78717;BME280;68045;50.042;14.432;2023-07-31T04:26:53;98177.09;;;15.11;70.99
78717;BME280;68045;50.042;14.432;2023-07-31T04:30:54;98175.00;;;15.29;69.55
78717;BME280;68045;50.042;14.432;2023-07-31T04:34:55;98174.25;;;15.44;69.34
78717;BME280;68045;50.042;14.432;2023-07-31T04:38:56;98166.25;;;15.38;68.95
78717;BME280;68045;50.042;14.432;2023-07-31T04:42:57;98165.75;;;15.52;68.97
78717;BME280;68045;50.042;14.432;2023-07-31T04:46:58;98165.75;;;15.52;67.50
78717;BME280;68045;50.042;14.432;2023-07-31T04:50:59;98167.88;;;15.55;68.03
78717;BME280;68045;50.042;14.432;2023-07-31T04:55:00;98159.09;;;15.54;68.23
78717;BME280;68045;50.042;14.432;2023-07-31T04:59:01;98162.56;;;15.55;68.16
78717;BME280;68045;50.042;14.432;2023-07-31T05:03:02;98166.84;;;15.71;68.40
78717;BME280;68045;50.042;14.432;2023-07-31T05:07:03;98167.94;;;15.65;68.28
78717;BME280;68045;50.042;14.432;2023-07-31T05:11:04;98165.00;;;15.77;67.60
78717;BME280;68045;50.042;14.432;2023-07-31T05:15:05;98176.19;;;15.89;67.24
78717;BME280;68045;50.042;14.432;2023-07-31T05:19:06;98172.19;;;15.91;67.62
78717;BME280;68045;50.042;14.432;2023-07-31T05:23:08;98177.78;;;15.75;68.08
78717;BME280;68045;50.042;14.432;2023-07-31T05:27:09;98175.66;;;15.72;68.09
78717;BME280;68045;50.042;14.432;2023-07-31T05:31:11;98171.66;;;15.95;67.75
78717;BME280;68045;50.042;14.432;2023-07-31T05:35:11;98182.81;;;15.91;67.51
78717;BME280;68045;50.042;14.432;2023-07-31T05:39:12;98168.72;;;16.11;66.41
78717;BME280;68045;50.042;14.432;2023-07-31T05:43:13;98164.72;;;16.29;66.40
78717;BME280;68045;50.042;14.432;2023-07-31T05:47:15;98164.16;;;16.37;65.77
78717;BME280;68045;50.042;14.432;2023-07-31T05:51:16;98168.91;;;16.51;65.61
78717;BME280;68045;50.042;14.432;2023-07-31T05:55:17;98165.94;;;16.72;64.86
78717;BME280;68045;50.042;14.432;2023-07-31T05:59:18;98160.63;;;16.72;65.02
78717;BME280;68045;50.042;14.432;2023-07-31T06:03:19;98155.50;;;16.86;64.96
78717;BME280;68045;50.042;14.432;2023-07-31T06:07:20;98153.94;;;16.80;64.53
78717;BME280;68045;50.042;14.432;2023-07-31T06:11:21;98148.53;;;16.95;63.52
78717;BME280;68045;50.042;14.432;2023-07-31T06:15:22;98138.66;;;16.96;63.97
78717;BME280;68045;50.042;14.432;2023-07-31T06:19:22;98136.84;;;16.81;64.13
78717;BME280;68045;50.042;14.432;2023-07-31T06:23:25;98140.22;;;17.07;63.42
78717;BME280;68045;50.042;14.432;2023-07-31T06:27:26;98130.22;;;17.28;63.14
78717;BME280;68045;50.042;14.432;2023-07-31T06:31:27;98125.00;;;17.47;61.86
78717;BME280;68045;50.042;14.432;2023-07-31T06:35:28;98133.75;;;17.57;62.08
78717;BME280;68045;50.042;14.432;2023-07-31T06:39:29;98120.59;;;17.66;61.92
78717;BME280;68045;50.042;14.432;2023-07-31T06:43:30;98123.75;;;17.78;61.24
78717;BME280;68045;50.042;14.432;2023-07-31T06:47:31;98120.78;;;17.80;61.16
78717;BME280;68045;50.042;14.432;2023-07-31T06:51:32;98137.31;;;17.82;61.36
78717;BME280;68045;50.042;14.432;2023-07-31T06:55:33;98136.31;;;17.73;61.52
78717;BME280;68045;50.042;14.432;2023-07-31T06:59:34;98133.66;;;17.73;61.97
78717;BME280;68045;50.042;14.432;2023-07-31T07:03:35;98137.53;;;17.91;61.85
78717;BME280;68045;50.042;14.432;2023-07-31T07:07:36;98131.06;;;18.26;61.02
78717;BME280;68045;50.042;14.432;2023-07-31T07:11:37;98137.56;;;18.38;60.07
78717;BME280;68045;50.042;14.432;2023-07-31T07:15:38;98135.47;;;18.59;60.38
78717;BME280;68045;50.042;14.432;2023-07-31T07:19:42;98122.66;;;19.04;59.39
78717;BME280;68045;50.042;14.432;2023-07-31T07:23:43;98120.34;;;18.98;58.69
78717;BME280;68045;50.042;14.432;2023-07-31T07:27:45;98124.72;;;18.88;58.82
78717;BME280;68045;50.042;14.432;2023-07-31T07:31:46;98124.53;;;19.04;58.88
78717;BME280;68045;50.042;14.432;2023-07-31T07:35:47;98129.56;;;18.86;59.15
78717;BME280;68045;50.042;14.432;2023-07-31T07:39:48;98121.19;;;18.93;59.40
78717;BME280;68045;50.042;14.432;2023-07-31T07:43:49;98133.03;;;18.87;59.60
78717;BME280;68045;50.042;14.432;2023-07-31T07:47:50;98117.53;;;18.89;59.33
78717;BME280;68045;50.042;14.432;2023-07-31T07:51:50;98115.47;;;18.81;60.07
78717;BME280;68045;50.042;14.432;2023-07-31T07:55:51;98104.00;;;18.99;59.60
78717;BME280;68045;50.042;14.432;2023-07-31T07:59:52;98125.13;;;19.19;58.05
78717;BME280;68045;50.042;14.432;2023-07-31T08:03:53;98127.16;;;19.28;56.77
78717;BME280;68045;50.042;14.432;2023-07-31T08:07:54;98125.56;;;19.45;56.01
78717;BME280;68045;50.042;14.432;2023-07-31T08:11:55;98124.03;;;19.39;55.10
78717;BME280;68045;50.042;14.432;2023-07-31T08:15:58;98131.97;;;19.44;54.57
78717;BME280;68045;50.042;14.432;2023-07-31T08:19:59;98145.59;;;19.48;54.46
78717;BME280;68045;50.042;14.432;2023-07-31T08:24:00;98126.00;;;19.53;54.69
78717;BME280;68045;50.042;14.432;2023-07-31T08:28:02;98142.81;;;19.72;54.41
78717;BME280;68045;50.042;14.432;2023-07-31T08:32:03;98158.22;;;19.24;54.99
78717;BME280;68045;50.042;14.432;2023-07-31T08:36:04;98153.72;;;19.24;55.68
78717;BME280;68045;50.042;14.432;2023-07-31T08:40:06;98158.75;;;19.07;56.08
78717;BME280;68045;50.042;14.432;2023-07-31T08:44:07;98138.19;;;19.02;55.98
78717;BME280;68045;50.042;14.432;2023-07-31T08:48:09;98139.88;;;19.36;55.84
78717;BME280;68045;50.042;14.432;2023-07-31T08:52:11;98150.44;;;19.46;55.69
78717;BME280;68045;50.042;14.432;2023-07-31T08:56:13;98136.25;;;19.45;55.60
78717;BME280;68045;50.042;14.432;2023-07-31T09:00:16;98133.44;;;19.37;56.09
78717;BME280;68045;50.042;14.432;2023-07-31T09:04:18;98151.06;;;19.38;56.11
78717;BME280;68045;50.042;14.432;2023-07-31T09:08:21;98130.25;;;19.54;56.21
78717;BME280;68045;50.042;14.432;2023-07-31T09:12:22;98128.75;;;19.66;56.03
78717;BME280;68045;50.042;14.432;2023-07-31T09:16:29;98138.56;;;19.71;56.10
78717;BME280;68045;50.042;14.432;2023-07-31T09:20:32;98123.25;;;19.58;56.53
78717;BME280;68045;50.042;14.432;2023-07-31T09:24:34;98126.84;;;19.48;56.84
78717;BME280;68045;50.042;14.432;2023-07-31T09:28:36;98123.47;;;19.61;56.57
78717;BME280;68045;50.042;14.432;2023-07-31T09:32:37;98129.22;;;20.01;55.81
78717;BME280;68045;50.042;14.432;2023-07-31T09:40:47;98135.06;;;20.91;53.24
78717;BME280;68045;50.042;14.432;2023-07-31T09:44:48;98116.84;;;21.15;52.18
78717;BME280;68045;50.042;14.432;2023-07-31T09:48:49;98113.72;;;21.58;51.46
78717;BME280;68045;50.042;14.432;2023-07-31T09:52:51;98101.81;;;22.04;49.58
78717;BME280;68045;50.042;14.432;2023-07-31T09:56:54;98091.00;;;22.57;49.00
78717;BME280;68045;50.042;14.432;2023-07-31T10:00:57;98098.09;;;22.53;48.81
78717;BME280;68045;50.042;14.432;2023-07-31T10:04:59;98088.84;;;22.28;49.16
78717;BME280;68045;50.042;14.432;2023-07-31T10:09:11;98077.50;;;23.06;47.34
78717;BME280;68045;50.042;14.432;2023-07-31T10:13:17;98070.03;;;24.19;44.52
78717;BME280;68045;50.042;14.432;2023-07-31T10:17:19;98061.84;;;24.74;42.97
78717;BME280;68045;50.042;14.432;2023-07-31T10:21:21;98054.38;;;24.71;42.42
78717;BME280;68045;50.042;14.432;2023-07-31T10:25:23;98038.56;;;23.93;44.37
78717;BME280;68045;50.042;14.432;2023-07-31T10:29:25;98043.25;;;23.49;45.74
78717;BME280;68045;50.042;14.432;2023-07-31T10:33:26;98029.97;;;22.92;47.09
78717;BME280;68045;50.042;14.432;2023-07-31T10:37:30;98033.66;;;24.33;43.11
78717;BME280;68045;50.042;14.432;2023-07-31T10:41:36;98029.38;;;24.83;42.51
78717;BME280;68045;50.042;14.432;2023-07-31T10:45:42;98030.81;;;25.01;41.18
78717;BME280;68045;50.042;14.432;2023-07-31T10:49:46;98023.13;;;23.47;44.60
78717;BME280;68045;50.042;14.432;2023-07-31T10:54:10;98006.53;;;23.92;44.84
78717;BME280;68045;50.042;14.432;2023-07-31T10:58:12;98011.84;;;24.47;42.99
78717;BME280;68045;50.042;14.432;2023-07-31T11:02:26;97993.81;;;23.37;44.68
78717;BME280;68045;50.042;14.432;2023-07-31T11:06:29;98003.16;;;23.39;45.24
78717;BME280;68045;50.042;14.432;2023-07-31T11:10:30;97991.28;;;23.32;45.33
78717;BME280;68045;50.042;14.432;2023-07-31T11:14:30;97991.56;;;23.65;43.65
78717;BME280;68045;50.042;14.432;2023-07-31T11:18:31;97985.50;;;24.44;42.84
78717;BME280;68045;50.042;14.432;2023-07-31T11:22:32;97996.69;;;23.40;44.50
78717;BME280;68045;50.042;14.432;2023-07-31T11:26:33;97988.94;;;23.04;45.63
78717;BME280;68045;50.042;14.432;2023-07-31T11:30:34;97990.97;;;22.46;46.77
78717;BME280;68045;50.042;14.432;2023-07-31T11:34:51;97987.50;;;22.72;45.74
78717;BME280;68045;50.042;14.432;2023-07-31T11:38:52;97993.09;;;22.93;45.62
78717;BME280;68045;50.042;14.432;2023-07-31T11:42:53;97972.16;;;22.90;45.19
78717;BME280;68045;50.042;14.432;2023-07-31T11:46:57;97987.03;;;22.70;45.78
78717;BME280;68045;50.042;14.432;2023-07-31T11:51:01;97984.31;;;23.30;44.40
78717;BME280;68045;50.042;14.432;2023-07-31T11:55:04;97992.16;;;24.47;42.11
78717;BME280;68045;50.042;14.432;2023-07-31T11:59:05;97974.97;;;24.72;41.52
78717;BME280;68045;50.042;14.432;2023-07-31T12:03:09;97975.13;;;24.76;40.97
78717;BME280;68045;50.042;14.432;2023-07-31T12:07:10;97968.38;;;24.10;41.90
78717;BME280;68045;50.042;14.432;2023-07-31T12:11:13;97956.31;;;24.67;41.05
78717;BME280;68045;50.042;14.432;2023-07-31T12:15:15;97949.56;;;24.23;40.55
78717;BME280;68045;50.042;14.432;2023-07-31T12:19:18;97940.81;;;23.75;42.29
78717;BME280;68045;50.042;14.432;2023-07-31T12:23:22;97951.78;;;24.00;41.12
78717;BME280;68045;50.042;14.432;2023-07-31T12:27:32;97943.50;;;24.05;41.48
78717;BME280;68045;50.042;14.432;2023-07-31T12:31:34;97929.56;;;24.24;41.30
78717;BME280;68045;50.042;14.432;2023-07-31T12:35:37;97926.69;;;24.91;39.82
78717;BME280;68045;50.042;14.432;2023-07-31T12:39:38;97918.75;;;24.74;40.55
78717;BME280;68045;50.042;14.432;2023-07-31T12:43:41;97926.34;;;24.81;39.42
78717;BME280;68045;50.042;14.432;2023-07-31T12:47:42;97938.91;;;24.35;39.95
78717;BME280;68045;50.042;14.432;2023-07-31T12:51:43;97915.81;;;24.17;40.31
78717;BME280;68045;50.042;14.432;2023-07-31T12:55:44;97913.38;;;24.86;39.77
78717;BME280;68045;50.042;14.432;2023-07-31T12:59:45;97901.44;;;25.66;38.51
78717;BME280;68045;50.042;14.432;2023-07-31T13:03:46;97893.91;;;26.48;36.77
78717;BME280;68045;50.042;14.432;2023-07-31T13:07:47;97892.72;;;26.21;36.65
78717;BME280;68045;50.042;14.432;2023-07-31T13:11:48;97919.13;;;24.22;39.37
78717;BME280;68045;50.042;14.432;2023-07-31T13:15:49;97903.41;;;23.95;40.52
78717;BME280;68045;50.042;14.432;2023-07-31T13:19:50;97876.41;;;24.33;39.87
78717;BME280;68045;50.042;14.432;2023-07-31T13:23:51;97882.56;;;24.87;39.47
78717;BME280;68045;50.042;14.432;2023-07-31T13:27:52;97877.72;;;24.48;39.86
78717;BME280;68045;50.042;14.432;2023-07-31T13:31:53;97877.59;;;23.94;40.33
78717;BME280;68045;50.042;14.432;2023-07-31T13:35:54;97867.44;;;24.41;39.87
78717;BME280;68045;50.042;14.432;2023-07-31T13:39:55;97878.00;;;24.04;40.36
78717;BME280;68045;50.042;14.432;2023-07-31T13:43:55;97868.44;;;23.86;40.65
78717;BME280;68045;50.042;14.432;2023-07-31T13:47:56;97859.31;;;23.99;40.56
78717;BME280;68045;50.042;14.432;2023-07-31T13:51:57;97860.16;;;23.91;40.44
78717;BME280;68045;50.042;14.432;2023-07-31T13:55:58;97862.09;;;23.82;40.58
78717;BME280;68045;50.042;14.432;2023-07-31T14:00:00;97863.44;;;23.76;41.36
78717;BME280;68045;50.042;14.432;2023-07-31T14:04:01;97840.09;;;24.01;40.66
78717;BME280;68045;50.042;14.432;2023-07-31T14:08:02;97842.94;;;24.67;39.33
78717;BME280;68045;50.042;14.432;2023-07-31T14:12:04;97843.00;;;24.58;39.34
78717;BME280;68045;50.042;14.432;2023-07-31T14:16:05;97831.38;;;24.79;39.27
78717;BME280;68045;50.042;14.432;2023-07-31T14:20:06;97822.22;;;25.04;38.88
78717;BME280;68045;50.042;14.432;2023-07-31T14:24:07;97828.47;;;24.30;39.87
78717;BME280;68045;50.042;14.432;2023-07-31T14:28:08;97831.53;;;23.78;41.01
78717;BME280;68045;50.042;14.432;2023-07-31T14:32:09;97816.81;;;23.75;40.98
78717;BME280;68045;50.042;14.432;2023-07-31T14:36:10;97803.06;;;23.68;41.35
78717;BME280;68045;50.042;14.432;2023-07-31T14:40:12;97801.22;;;23.81;41.22
78717;BME280;68045;50.042;14.432;2023-07-31T14:44:13;97789.66;;;24.01;40.86
78717;BME280;68045;50.042;14.432;2023-07-31T14:48:14;97787.03;;;23.93;41.24
78717;BME280;68045;50.042;14.432;2023-07-31T14:52:15;97793.66;;;23.74;40.64
78717;BME280;68045;50.042;14.432;2023-07-31T14:56:16;97775.69;;;23.57;41.41
78717;BME280;68045;50.042;14.432;2023-07-31T15:00:17;97767.78;;;23.61;41.28
78717;BME280;68045;50.042;14.432;2023-07-31T15:04:19;97763.44;;;23.60;40.79
78717;BME280;68045;50.042;14.432;2023-07-31T15:08:20;97773.88;;;23.70;39.69
78717;BME280;68045;50.042;14.432;2023-07-31T15:12:21;97746.69;;;23.84;39.72
78717;BME280;68045;50.042;14.432;2023-07-31T15:16:23;97753.28;;;24.07;39.07
78717;BME280;68045;50.042;14.432;2023-07-31T15:20:24;97749.81;;;24.07;39.46
78717;BME280;68045;50.042;14.432;2023-07-31T15:24:25;97732.47;;;24.29;39.52
78717;BME280;68045;50.042;14.432;2023-07-31T15:28:26;97739.31;;;24.26;39.02
78717;BME280;68045;50.042;14.432;2023-07-31T15:32:27;97719.41;;;24.19;39.17
78717;BME280;68045;50.042;14.432;2023-07-31T15:36:28;97744.69;;;23.93;39.74
78717;BME280;68045;50.042;14.432;2023-07-31T15:40:29;97732.06;;;23.85;39.74
78717;BME280;68045;50.042;14.432;2023-07-31T15:44:30;97717.63;;;23.90;39.90
78717;BME280;68045;50.042;14.432;2023-07-31T15:48:31;97718.66;;;23.97;39.86
78717;BME280;68045;50.042;14.432;2023-07-31T15:52:32;97723.03;;;23.69;40.65
78717;BME280;68045;50.042;14.432;2023-07-31T15:56:33;97734.03;;;23.55;40.67
78717;BME280;68045;50.042;14.432;2023-07-31T16:00:34;97722.91;;;23.36;41.09
78717;BME280;68045;50.042;14.432;2023-07-31T16:04:35;97723.44;;;23.50;41.29
78717;BME280;68045;50.042;14.432;2023-07-31T16:08:36;97733.75;;;23.48;41.59
78717;BME280;68045;50.042;14.432;2023-07-31T16:12:42;97728.88;;;23.41;42.63
78717;BME280;68045;50.042;14.432;2023-07-31T16:16:43;97726.72;;;23.55;42.41
78717;BME280;68045;50.042;14.432;2023-07-31T16:20:44;97729.78;;;23.45;42.44
78717;BME280;68045;50.042;14.432;2023-07-31T16:24:45;97725.00;;;23.51;42.87
78717;BME280;68045;50.042;14.432;2023-07-31T16:28:46;97716.28;;;23.54;43.07
78717;BME280;68045;50.042;14.432;2023-07-31T16:32:47;97720.84;;;23.62;42.79
78717;BME280;68045;50.042;14.432;2023-07-31T16:36:50;97718.97;;;23.75;42.67
78717;BME280;68045;50.042;14.432;2023-07-31T16:40:51;97718.28;;;23.66;43.00
78717;BME280;68045;50.042;14.432;2023-07-31T16:44:52;97709.22;;;23.70;42.61
78717;BME280;68045;50.042;14.432;2023-07-31T16:48:54;97716.41;;;23.57;42.94
78717;BME280;68045;50.042;14.432;2023-07-31T16:52:55;97711.97;;;23.62;43.40
78717;BME280;68045;50.042;14.432;2023-07-31T16:56:56;97710.56;;;23.55;42.70
78717;BME280;68045;50.042;14.432;2023-07-31T17:00:57;97717.19;;;23.08;44.12
78717;BME280;68045;50.042;14.432;2023-07-31T17:05:02;97712.22;;;23.18;44.08
78717;BME280;68045;50.042;14.432;2023-07-31T17:09:03;97707.50;;;23.15;44.12
78717;BME280;68045;50.042;14.432;2023-07-31T17:13:03;97694.41;;;23.05;44.04
78717;BME280;68045;50.042;14.432;2023-07-31T17:17:06;97694.19;;;23.19;43.54
78717;BME280;68045;50.042;14.432;2023-07-31T17:21:07;97690.59;;;23.06;43.62
78717;BME280;68045;50.042;14.432;2023-07-31T17:25:08;97690.63;;;23.27;44.11
78717;BME280;68045;50.042;14.432;2023-07-31T17:29:13;97695.78;;;23.11;43.72
78717;BME280;68045;50.042;14.432;2023-07-31T17:33:16;97682.19;;;23.08;43.15
78717;BME280;68045;50.042;14.432;2023-07-31T17:37:17;97683.91;;;23.12;44.04
78717;BME280;68045;50.042;14.432;2023-07-31T17:41:18;97679.84;;;22.97;43.85
78717;BME280;68045;50.042;14.432;2023-07-31T17:45:19;97685.13;;;22.94;44.10
78717;BME280;68045;50.042;14.432;2023-07-31T17:49:21;97680.88;;;22.75;44.77
78717;BME280;68045;50.042;14.432;2023-07-31T17:53:22;97687.75;;;22.64;44.79
78717;BME280;68045;50.042;14.432;2023-07-31T17:57:23;97682.09;;;22.57;44.99
78717;BME280;68045;50.042;14.432;2023-07-31T18:01:25;97677.66;;;22.53;45.55
78717;BME280;68045;50.042;14.432;2023-07-31T18:05:26;97682.59;;;22.51;45.42
78717;BME280;68045;50.042;14.432;2023-07-31T18:09:27;97669.13;;;22.51;45.91
78717;BME280;68045;50.042;14.432;2023-07-31T18:13:28;97682.16;;;22.31;46.36
78717;BME280;68045;50.042;14.432;2023-07-31T18:17:29;97676.66;;;22.19;47.23
78717;BME280;68045;50.042;14.432;2023-07-31T18:21:30;97677.78;;;22.09;47.46
78717;BME280;68045;50.042;14.432;2023-07-31T18:25:34;97677.91;;;22.04;47.95
78717;BME280;68045;50.042;14.432;2023-07-31T18:29:35;97680.63;;;21.96;47.91
78717;BME280;68045;50.042;14.432;2023-07-31T18:33:36;97671.47;;;21.88;48.51
78717;BME280;68045;50.042;14.432;2023-07-31T18:37:37;97672.91;;;21.77;48.60
78717;BME280;68045;50.042;14.432;2023-07-31T18:41:38;97678.91;;;21.74;48.23
78717;BME280;68045;50.042;14.432;2023-07-31T18:45:40;97673.06;;;21.63;48.88
78717;BME280;68045;50.042;14.432;2023-07-31T18:49:41;97672.44;;;21.66;48.93
78717;BME280;68045;50.042;14.432;2023-07-31T18:53:42;97676.53;;;21.55;49.27
78717;BME280;68045;50.042;14.432;2023-07-31T18:57:43;97666.59;;;21.47;49.60
78717;BME280;68045;50.042;14.432;2023-07-31T19:01:46;97669.13;;;21.43;49.76
78717;BME280;68045;50.042;14.432;2023-07-31T19:05:46;97671.03;;;21.43;50.34
78717;BME280;68045;50.042;14.432;2023-07-31T19:09:47;97670.06;;;21.47;49.65
78717;BME280;68045;50.042;14.432;2023-07-31T19:13:49;97673.72;;;21.43;49.79
78717;BME280;68045;50.042;14.432;2023-07-31T19:17:50;97667.19;;;21.35;49.94
78717;BME280;68045;50.042;14.432;2023-07-31T19:21:50;97677.31;;;21.38;49.63
78717;BME280;68045;50.042;14.432;2023-07-31T19:25:51;97661.03;;;21.34;49.90
78717;BME280;68045;50.042;14.432;2023-07-31T19:29:52;97664.69;;;21.30;50.30
78717;BME280;68045;50.042;14.432;2023-07-31T19:33:52;97655.53;;;21.31;50.32
78717;BME280;68045;50.042;14.432;2023-07-31T19:37:53;97652.81;;;21.22;50.54
78717;BME280;68045;50.042;14.432;2023-07-31T19:41:55;97646.34;;;21.23;50.36
78717;BME280;68045;50.042;14.432;2023-07-31T19:45:55;97632.59;;;21.16;50.68
78717;BME280;68045;50.042;14.432;2023-07-31T19:49:57;97634.94;;;21.18;50.77
78717;BME280;68045;50.042;14.432;2023-07-31T19:53:58;97621.22;;;21.19;50.14
78717;BME280;68045;50.042;14.432;2023-07-31T19:57:59;97626.56;;;21.19;50.34
78717;BME280;68045;50.042;14.432;2023-07-31T20:02:00;97617.41;;;21.11;50.60
78717;BME280;68045;50.042;14.432;2023-07-31T20:06:02;97615.06;;;21.10;50.37
78717;BME280;68045;50.042;14.432;2023-07-31T20:10:03;97616.94;;;21.09;50.71
78717;BME280;68045;50.042;14.432;2023-07-31T20:14:05;97616.31;;;21.12;50.76
78717;BME280;68045;50.042;14.432;2023-07-31T20:18:06;97601.47;;;20.98;51.84
78717;BME280;68045;50.042;14.432;2023-07-31T20:22:07;97594.66;;;20.92;52.01
78717;BME280;68045;50.042;14.432;2023-07-31T20:26:09;97594.50;;;20.79;52.52
78717;BME280;68045;50.042;14.432;2023-07-31T20:30:10;97589.13;;;20.79;52.51
78717;BME280;68045;50.042;14.432;2023-07-31T20:34:11;97587.84;;;20.85;52.54
78717;BME280;68045;50.042;14.432;2023-07-31T20:38:12;97590.22;;;20.78;52.89
78717;BME280;68045;50.042;14.432;2023-07-31T20:42:13;97588.94;;;20.67;53.30
78717;BME280;68045;50.042;14.432;2023-07-31T20:46:16;97585.63;;;20.70;53.73
78717;BME280;68045;50.042;14.432;2023-07-31T20:50:17;97580.59;;;20.69;53.67
78717;BME280;68045;50.042;14.432;2023-07-31T20:54:17;97573.31;;;20.61;54.19
78717;BME280;68045;50.042;14.432;2023-07-31T20:58:18;97564.16;;;20.62;53.79
78717;BME280;68045;50.042;14.432;2023-07-31T21:02:19;97570.63;;;20.52;53.86
78717;BME280;68045;50.042;14.432;2023-07-31T21:06:20;97570.44;;;20.48;54.01
78717;BME280;68045;50.042;14.432;2023-07-31T21:10:22;97558.56;;;20.41;54.10
78717;BME280;68045;50.042;14.432;2023-07-31T21:14:23;97561.13;;;20.46;53.76
78717;BME280;68045;50.042;14.432;2023-07-31T21:18:24;97546.56;;;20.38;53.97